Rechercher aéroport 
image banner adimage banner adimage banner ad
image banner ad

CA79 - The Ritz-Carlton Hotel Company

Situé à Marina Del Rey, United States

ICAO - CA79, IATA -

Données fournies par Airmate  

Information générale

Coordonnées: N33°59'4" W118°27'0"
Élévation : 50 feet MSL.
Variation magnétique : 14° East
Voir autres Aéroports à California

Données opérationnelles

Special qualification required
Heure actuelle UTC:
Heure actuelle locale:
Météo à : KSMO - Santa Monica Muni ( 3 km )
METAR: KSMO 260851Z AUTO 27003KT 10SM OVC009 17/15 A3002 RMK AO2 SLP165 T01670150 51003
TAF: KSMO 260559Z 2606/2706 VRB03KT P6SM OVC006 FM260800 VRB03KT P6SM OVC009 FM261700 23006KT P6SM BKN011 FM262000 24009KT P6SM SCT015 FM270300 22005KT P6SM BKN012
Voir NOTAMs / SUP AIP / TFR affectant cet aéroport [VIEW]
Fréquences de communication: [VIEW]

Pistes:

Coordonnées de l'aéroport

Adresse: Marina Del Rey United States

Vue satellite de CA79